Time;durP1;ratioP1;P1;durP2;ratioP2;P2;SDS_P1;SDS_P2;PMS_P1;PMS_P2;Temp;Humidity;BMP_temperature;BMP_pressure;BME280_temperature;BME280_humidity;BME280_pressure;Samples;Min_cycle;Max_cycle;Signal;HPM_P1;HPM_P2
2021/07/20 00:00:32;;;;;;;17.42;13.80;;;20.20;78.10;;;;;;6215952;23;20031;-77
2021/07/20 00:03:00;;;;;;;17.88;12.63;;;20.10;78.10;;;;;;6216263;23;20086;-79
2021/07/20 00:05:28;;;;;;;16.65;12.73;;;20.10;78.20;;;;;;6189838;23;20326;-77
2021/07/20 00:07:58;;;;;;;14.13;12.63;;;20.10;78.20;;;;;;6215730;23;20028;-78
2021/07/20 00:10:38;;;;;;;15.10;13.38;;;20.10;78.10;;;;;;6216185;23;20016;-78
2021/07/20 00:13:06;;;;;;;21.75;13.35;;;20.10;78.00;;;;;;6189482;23;20016;-79
2021/07/20 00:15:35;;;;;;;18.38;13.23;;;20.00;78.00;;;;;;6216351;23;20039;-77
2021/07/20 00:18:09;;;;;;;15.68;13.23;;;20.00;77.90;;;;;;6190025;23;20091;-75
2021/07/20 00:20:37;;;;;;;17.20;13.52;;;19.90;77.90;;;;;;6216293;23;20027;-77
2021/07/20 00:23:06;;;;;;;14.25;12.57;;;19.90;78.00;;;;;;6216055;23;20356;-78
2021/07/20 00:25:33;;;;;;;14.73;13.20;;;19.90;78.10;;;;;;6189459;23;20028;-77
2021/07/20 00:28:00;;;;;;;17.05;13.10;;;19.90;78.10;;;;;;6216095;23;20322;-76
2021/07/20 00:30:28;;;;;;;14.50;13.00;;;19.90;78.20;;;;;;6215867;23;20017;-79
2021/07/20 00:32:56;;;;;;;16.15;12.30;;;19.90;78.30;;;;;;6189449;23;20016;-77
2021/07/20 00:35:23;;;;;;;21.25;13.70;;;19.80;78.30;;;;;;6215793;23;20460;-78
2021/07/20 00:37:50;;;;;;;14.52;12.88;;;19.80;78.00;;;;;;6215300;23;20021;-78
2021/07/20 00:40:18;;;;;;;18.38;12.85;;;19.80;78.00;;;;;;6216174;23;20027;-77
2021/07/20 00:42:46;;;;;;;16.15;11.95;;;19.70;78.10;;;;;;6215939;23;20027;-77
2021/07/20 00:45:16;;;;;;;16.13;11.32;;;19.70;78.10;;;;;;6215626;23;20027;-76
2021/07/20 00:47:44;;;;;;;15.60;12.18;;;19.70;78.10;;;;;;6215887;23;20024;-78
2021/07/20 00:50:13;;;;;;;13.68;11.77;;;19.60;78.00;;;;;;6215388;23;20356;-78
2021/07/20 00:52:41;;;;;;;13.18;11.55;;;19.60;78.10;;;;;;6189157;23;20352;-74
2021/07/20 00:55:09;;;;;;;16.85;12.23;;;19.60;78.20;;;;;;6189277;23;20452;-77
2021/07/20 00:57:37;;;;;;;14.32;10.95;;;19.60;78.20;;;;;;6215493;23;20482;-76
2021/07/20 01:00:11;;;;;;;15.85;11.77;;;19.50;78.30;;;;;;6189217;23;20021;-79
2021/07/20 01:02:39;;;;;;;17.70;12.43;;;19.50;78.30;;;;;;6215744;23;20023;-77
2021/07/20 01:05:12;;;;;;;17.38;11.50;;;19.40;78.30;;;;;;6189150;23;20024;-77
2021/07/20 01:07:43;;;;;;;13.68;11.85;;;19.40;78.30;;;;;;6215733;23;20023;-76
2021/07/20 01:10:12;;;;;;;13.35;11.00;;;19.40;78.20;;;;;;6215700;23;20024;-78
2021/07/20 01:12:41;;;;;;;20.08;12.93;;;19.40;78.20;;;;;;6215794;23;20020;-76
2021/07/20 01:15:10;;;;;;;17.73;12.38;;;19.30;78.20;;;;;;6215735;23;20016;-79
2021/07/20 01:17:42;;;;;;;16.65;14.32;;;19.30;78.10;;;;;;6189008;23;20020;-79
2021/07/20 01:20:15;;;;;;;22.33;13.18;;;19.30;78.10;;;;;;6189084;23;20016;-77
2021/07/20 01:22:54;;;;;;;16.73;13.60;;;19.30;78.20;;;;;;6215697;23;20356;-78
2021/07/20 01:25:21;;;;;;;14.63;11.95;;;19.20;78.30;;;;;;6215833;23;20023;-77
2021/07/20 01:27:53;;;;;;;19.17;12.18;;;19.20;78.40;;;;;;6188799;23;20027;-77
2021/07/20 01:30:21;;;;;;;19.80;12.23;;;19.20;78.40;;;;;;6215594;23;20016;-79
2021/07/20 01:32:49;;;;;;;13.23;11.75;;;19.20;78.40;;;;;;6215704;23;20017;-80
2021/07/20 01:35:17;;;;;;;14.43;11.27;;;19.20;78.40;;;;;;6189017;23;20020;-80
2021/07/20 01:37:46;;;;;;;16.77;12.77;;;19.10;78.40;;;;;;6183511;23;20025;-77
2021/07/20 01:40:14;;;;;;;14.07;12.57;;;19.10;78.40;;;;;;6184126;23;20350;-81
2021/07/20 01:42:45;;;;;;;17.90;13.25;;;19.10;78.40;;;;;;6183681;23;20028;-77
2021/07/20 01:45:13;;;;;;;14.60;13.10;;;19.10;78.40;;;;;;6185105;23;20017;-77
2021/07/20 01:47:44;;;;;;;16.15;12.40;;;19.00;78.50;;;;;;6183531;23;20023;-75
2021/07/20 01:50:16;;;;;;;17.13;12.35;;;18.90;78.60;;;;;;6185374;23;20017;-78
2021/07/20 01:52:45;;;;;;;17.45;11.55;;;18.90;78.60;;;;;;6185434;23;20024;-80
2021/07/20 01:55:14;;;;;;;19.50;13.30;;;18.90;78.60;;;;;;6185414;23;20017;-78
2021/07/20 01:57:41;;;;;;;16.85;13.63;;;18.90;78.60;;;;;;6183678;23;20345;-75
2021/07/20 02:00:18;;;;;;;19.13;12.43;;;18.90;78.50;;;;;;6183448;23;20465;-77
2021/07/20 02:03:14;;;;;;;15.35;11.55;;;18.90;78.50;;;;;;6185435;23;20091;-79
2021/07/20 02:08:34;;;;;;;15.55;12.27;;;18.80;78.40;;;;;;6212497;23;20031;-78
2021/07/20 02:11:05;;;;;;;48.72;15.43;;;18.80;78.40;;;;;;6212602;23;20017;-75
2021/07/20 02:13:50;;;;;;;22.27;13.48;;;18.80;78.30;;;;;;6187652;23;20116;-81
2021/07/20 02:16:19;;;;;;;17.70;12.48;;;18.70;78.30;;;;;;6212552;23;20484;-77
2021/07/20 02:18:52;;;;;;;18.88;12.77;;;18.70;78.30;;;;;;6212231;23;20024;-79
2021/07/20 02:21:21;;;;;;;18.73;12.18;;;18.70;78.40;;;;;;6212495;23;20021;-78
2021/07/20 02:23:52;;;;;;;19.13;13.00;;;18.60;78.50;;;;;;6212487;23;20036;-79
2021/07/20 02:26:22;;;;;;;19.42;13.60;;;18.60;78.50;;;;;;6212567;23;20027;-79
2021/07/20 02:28:51;;;;;;;16.95;12.23;;;18.50;78.60;;;;;;6212275;23;20387;-78
2021/07/20 02:31:20;;;;;;;21.27;15.23;;;18.50;78.60;;;;;;6187539;23;20020;-75
2021/07/20 02:33:48;;;;;;;18.58;14.55;;;18.50;78.30;;;;;;6187278;23;20016;-78
2021/07/20 02:36:16;;;;;;;19.88;15.45;;;18.50;78.20;;;;;;6187406;23;20016;-79
2021/07/20 02:38:43;;;;;;;20.42;15.23;;;18.50;78.20;;;;;;6212334;23;20027;-78
2021/07/20 02:41:12;;;;;;;23.50;14.65;;;18.40;78.30;;;;;;6187532;23;20487;-76
2021/07/20 02:43:42;;;;;;;23.02;14.57;;;18.40;78.40;;;;;;6212409;23;20028;-80
2021/07/20 02:46:11;;;;;;;19.10;14.18;;;18.40;78.20;;;;;;6193282;23;20075;-77
2021/07/20 02:48:40;;;;;;;16.23;14.10;;;18.40;78.10;;;;;;6184739;23;20424;-79
2021/07/20 02:51:09;;;;;;;19.17;14.00;;;18.40;78.20;;;;;;6183658;23;20024;-78
2021/07/20 02:53:39;;;;;;;19.90;14.45;;;18.30;78.40;;;;;;6185245;23;20023;-77
2021/07/20 02:56:08;;;;;;;37.25;15.25;;;18.40;78.60;;;;;;6186659;23;20021;-78
2021/07/20 02:58:37;;;;;;;19.13;14.32;;;18.30;78.70;;;;;;6185254;23;20024;-77
2021/07/20 03:01:05;;;;;;;20.13;14.23;;;18.20;78.80;;;;;;6186237;23;20357;-80
2021/07/20 03:03:32;;;;;;;29.20;14.48;;;18.20;78.80;;;;;;6185333;23;20557;-79
2021/07/20 03:06:01;;;;;;;17.90;14.25;;;18.20;78.90;;;;;;6186941;23;20021;-75
2021/07/20 03:08:29;;;;;;;23.60;14.05;;;18.10;78.80;;;;;;6185313;23;20021;-80
2021/07/20 03:10:58;;;;;;;22.00;14.68;;;18.10;78.50;;;;;;6186379;23;20473;-80
2021/07/20 03:13:27;;;;;;;22.20;13.27;;;18.10;78.50;;;;;;6186438;23;20028;-78
2021/07/20 03:15:56;;;;;;;20.67;13.43;;;18.10;78.60;;;;;;6186163;23;20020;-79
2021/07/20 03:18:27;;;;;;;22.63;12.40;;;18.10;78.70;;;;;;6184882;23;20021;-74
2021/07/20 03:20:56;;;;;;;15.98;13.45;;;18.00;78.80;;;;;;6186316;23;20487;-80
2021/07/20 03:23:24;;;;;;;17.65;14.18;;;18.00;78.80;;;;;;6185288;23;20021;-78
2021/07/20 03:25:55;;;;;;;22.80;13.75;;;17.90;78.80;;;;;;6186734;23;20025;-77
2021/07/20 03:28:24;;;;;;;18.50;13.88;;;17.90;78.80;;;;;;6185168;23;20021;-76
2021/07/20 03:30:52;;;;;;;23.40;13.55;;;17.90;78.80;;;;;;6186253;23;20028;-78
2021/07/20 03:33:21;;;;;;;17.80;13.57;;;17.90;78.90;;;;;;6186645;23;20024;-80
2021/07/20 03:35:50;;;;;;;17.17;13.38;;;17.90;78.90;;;;;;6187670;23;20028;-77
2021/07/20 03:38:18;;;;;;;18.98;14.15;;;17.90;78.90;;;;;;6190381;23;20016;-76
2021/07/20 03:40:47;;;;;;;24.85;14.80;;;17.90;78.80;;;;;;6216582;23;20017;-80
2021/07/20 03:43:17;;;;;;;25.23;14.35;;;17.90;78.70;;;;;;6216509;23;20016;-78
2021/07/20 03:45:45;;;;;;;20.13;13.38;;;17.90;78.60;;;;;;6215910;23;20020;-75
2021/07/20 03:48:13;;;;;;;22.15;14.27;;;17.80;78.60;;;;;;6216558;23;20055;-78
2021/07/20 03:50:41;;;;;;;17.45;13.50;;;17.80;78.70;;;;;;6216450;23;20024;-76
2021/07/20 03:53:09;;;;;;;21.65;13.68;;;17.70;78.70;;;;;;6190006;23;20017;-77
2021/07/20 03:55:36;;;;;;;30.75;14.13;;;17.70;78.60;;;;;;6189705;23;20483;-78
2021/07/20 03:58:05;;;;;;;31.38;14.30;;;17.70;78.60;;;;;;6216058;23;20017;-76
2021/07/20 04:00:33;;;;;;;20.88;13.60;;;17.60;78.70;;;;;;6216008;23;20021;-78
2021/07/20 04:05:54;;;;;;;30.60;14.30;;;17.60;78.90;;;;;;6216253;23;20028;-80
2021/07/20 04:08:23;;;;;;;23.83;13.65;;;17.60;78.90;;;;;;6215880;23;20360;-76
2021/07/20 04:10:52;;;;;;;30.08;14.75;;;17.50;79.00;;;;;;6189598;23;20020;-76
2021/07/20 04:13:20;;;;;;;21.08;14.00;;;17.50;79.00;;;;;;6215493;23;20482;-77
2021/07/20 04:15:51;;;;;;;23.85;14.02;;;17.50;79.10;;;;;;6216220;23;20024;-78
2021/07/20 04:18:20;;;;;;;22.25;14.52;;;17.40;79.00;;;;;;6215720;23;20044;-78
2021/07/20 04:20:47;;;;;;;29.40;13.57;;;17.40;78.90;;;;;;6215837;23;20022;-77
2021/07/20 04:23:16;;;;;;;25.85;13.90;;;17.40;78.90;;;;;;6189349;23;20020;-79
2021/07/20 04:25:44;;;;;;;21.45;13.52;;;17.40;78.90;;;;;;6215658;23;20017;-75
2021/07/20 04:28:13;;;;;;;25.92;14.32;;;17.40;79.00;;;;;;6189138;23;20017;-79
2021/07/20 04:30:42;;;;;;;27.00;14.43;;;17.40;79.10;;;;;;6189623;23;20375;-79
2021/07/20 04:33:17;;;;;;;24.60;14.38;;;17.40;79.10;;;;;;6189282;23;20029;-78
2021/07/20 04:35:45;;;;;;;27.67;14.52;;;17.40;79.00;;;;;;6215368;23;20025;-78
2021/07/20 04:38:15;;;;;;;20.65;14.48;;;17.30;79.00;;;;;;6216179;23;20021;-77
2021/07/20 04:40:42;;;;;;;26.48;13.88;;;17.40;79.00;;;;;;6189597;23;20017;-78
2021/07/20 04:43:12;;;;;;;27.67;14.30;;;17.30;79.20;;;;;;6189239;23;20361;-77
2021/07/20 04:45:40;;;;;;;27.52;14.48;;;17.30;79.20;;;;;;6215642;23;20024;-78
2021/07/20 04:48:08;;;;;;;24.52;14.32;;;17.40;79.10;;;;;;6216129;23;20023;-78
2021/07/20 04:50:35;;;;;;;30.42;14.85;;;17.30;79.10;;;;;;6215424;23;20016;-79
2021/07/20 04:53:03;;;;;;;30.65;14.80;;;17.30;79.30;;;;;;6215959;23;20023;-77
2021/07/20 04:55:31;;;;;;;25.67;14.50;;;17.30;79.40;;;;;;6215946;23;20452;-78
2021/07/20 04:58:00;;;;;;;23.27;15.68;;;17.30;79.40;;;;;;6215710;23;20027;-78
2021/07/20 05:00:27;;;;;;;36.53;16.17;;;17.40;79.50;;;;;;6215445;23;20056;-75
2021/07/20 05:02:57;;;;;;;21.58;14.82;;;17.30;79.40;;;;;;6215795;23;20464;-78
2021/07/20 05:05:26;;;;;;;27.55;14.82;;;17.30;79.30;;;;;;6189274;23;20495;-78
2021/07/20 05:07:54;;;;;;;24.00;14.98;;;17.40;79.10;;;;;;6215849;23;20021;-76
2021/07/20 05:10:21;;;;;;;25.17;14.82;;;17.40;78.70;;;;;;6189056;23;20016;-79
2021/07/20 05:12:49;;;;;;;20.52;14.45;;;17.40;78.70;;;;;;6215483;23;20023;-75
2021/07/20 05:15:18;;;;;;;32.55;15.38;;;17.40;79.00;;;;;;6215453;23;20457;-76
2021/07/20 05:17:46;;;;;;;21.60;14.43;;;17.40;79.30;;;;;;6215601;23;20052;-79
2021/07/20 05:20:16;;;;;;;29.05;14.27;;;17.30;79.50;;;;;;6215713;23;20352;-78
2021/07/20 05:22:45;;;;;;;30.88;14.60;;;17.40;79.70;;;;;;6215723;23;20020;-80
2021/07/20 05:25:13;;;;;;;31.55;15.13;;;17.40;79.90;;;;;;6215526;23;20036;-80
2021/07/20 05:27:46;;;;;;;31.02;15.75;;;17.40;80.00;;;;;;6215053;23;20025;-78
2021/07/20 05:30:14;;;;;;;32.33;16.07;;;17.40;80.00;;;;;;6215205;23;20027;-78
2021/07/20 05:32:43;;;;;;;20.45;16.35;;;17.40;79.70;;;;;;6215618;23;20024;-79
2021/07/20 05:35:13;;;;;;;33.40;16.77;;;17.40;79.40;;;;;;6189316;23;20017;-77
2021/07/20 05:37:41;;;;;;;28.55;16.38;;;17.40;79.50;;;;;;6215292;23;20023;-79
2021/07/20 05:40:10;;;;;;;26.75;16.17;;;17.50;79.50;;;;;;6214933;23;20030;-76
2021/07/20 05:42:39;;;;;;;29.13;16.90;;;17.40;79.70;;;;;;6215607;23;20021;-78
2021/07/20 05:45:07;;;;;;;22.92;16.75;;;17.50;80.10;;;;;;6189267;23;20020;-78
2021/07/20 05:47:48;;;;;;;30.92;18.02;;;17.50;80.40;;;;;;6189169;23;20027;-76
2021/07/20 05:50:17;;;;;;;31.92;17.55;;;17.60;80.70;;;;;;6215398;23;20020;-77
2021/07/20 05:52:50;;;;;;;32.40;19.17;;;17.60;80.80;;;;;;6189188;23;20474;-76
2021/07/20 05:55:20;;;;;;;27.77;18.17;;;17.70;80.90;;;;;;6214798;23;20095;-80
2021/07/20 05:57:48;;;;;;;25.42;16.95;;;17.70;81.00;;;;;;6215591;23;20017;-79
2021/07/20 06:00:21;;;;;;;42.95;18.20;;;17.80;81.10;;;;;;6215410;23;20027;-77
2021/07/20 06:02:49;;;;;;;34.30;18.98;;;17.80;81.30;;;;;;6215513;23;20024;-78
2021/07/20 06:05:17;;;;;;;30.17;18.50;;;17.90;81.20;;;;;;6215004;23;20025;-80
2021/07/20 06:07:45;;;;;;;31.02;19.35;;;17.90;81.30;;;;;;6189077;23;20459;-78
2021/07/20 06:10:17;;;;;;;30.33;20.42;;;17.90;81.40;;;;;;6215185;23;20017;-76
2021/07/20 06:12:46;;;;;;;32.28;23.33;;;18.00;81.60;;;;;;6214417;23;20087;-77
2021/07/20 06:15:14;;;;;;;33.13;23.23;;;18.10;81.60;;;;;;6214581;23;20016;-79
2021/07/20 06:17:41;;;;;;;34.00;23.08;;;18.10;81.80;;;;;;6215110;23;20023;-78
2021/07/20 06:20:09;;;;;;;35.60;25.63;;;18.10;82.00;;;;;;6215207;23;20026;-76
2021/07/20 06:22:43;;;;;;;35.38;24.48;;;18.20;82.10;;;;;;6214941;23;20021;-77
2021/07/20 06:25:13;;;;;;;39.05;25.88;;;18.30;82.20;;;;;;6188362;23;20031;-77
2021/07/20 06:27:42;;;;;;;37.00;26.45;;;18.40;82.30;;;;;;6214715;23;20024;-79
2021/07/20 06:30:10;;;;;;;34.05;27.08;;;18.40;82.30;;;;;;6188463;23;20360;-80
2021/07/20 06:32:38;;;;;;;38.47;26.67;;;18.40;82.40;;;;;;6215490;23;20344;-79
2021/07/20 06:35:08;;;;;;;35.90;27.65;;;18.50;82.60;;;;;;6189853;23;20017;-78
2021/07/20 06:37:35;;;;;;;39.20;26.95;;;18.60;82.60;;;;;;6216523;23;20330;-77
2021/07/20 06:40:03;;;;;;;39.22;25.25;;;18.70;82.70;;;;;;6189673;23;20028;-79
2021/07/20 06:42:31;;;;;;;39.00;27.48;;;18.70;82.70;;;;;;6189550;23;20460;-80
2021/07/20 06:44:59;;;;;;;33.08;27.15;;;18.80;82.70;;;;;;6216483;23;20022;-79
2021/07/20 06:47:27;;;;;;;36.78;26.02;;;18.90;82.70;;;;;;6189795;23;20368;-77
2021/07/20 06:49:57;;;;;;;33.30;25.77;;;18.90;82.60;;;;;;6189748;23;20021;-77
2021/07/20 06:52:24;;;;;;;30.38;22.92;;;19.00;82.60;;;;;;6216221;23;20016;-78
2021/07/20 06:54:51;;;;;;;34.13;23.42;;;19.10;82.50;;;;;;6189594;23;20017;-77
2021/07/20 06:57:21;;;;;;;37.50;24.67;;;19.20;82.30;;;;;;6214238;23;20482;-77
2021/07/20 06:59:51;;;;;;;34.20;23.65;;;19.30;82.40;;;;;;6215718;23;20028;-77
2021/07/20 07:02:23;;;;;;;37.08;22.60;;;19.40;82.50;;;;;;6215783;23;20020;-78
2021/07/20 07:05:03;;;;;;;26.33;22.13;;;19.40;82.50;;;;;;6215051;23;20024;-77
2021/07/20 07:07:32;;;;;;;35.45;22.20;;;19.50;82.30;;;;;;6188890;23;20032;-77
2021/07/20 07:10:01;;;;;;;31.00;22.00;;;19.60;82.10;;;;;;6188970;23;20356;-77
2021/07/20 07:12:31;;;;;;;29.27;21.83;;;19.60;82.00;;;;;;6214839;23;20030;-76
2021/07/20 07:15:01;;;;;;;29.67;21.15;;;19.80;82.00;;;;;;6215537;23;20135;-77
2021/07/20 07:17:29;;;;;;;28.15;21.10;;;19.80;81.80;;;;;;6189225;23;20020;-78
2021/07/20 07:19:57;;;;;;;29.60;20.65;;;19.90;81.70;;;;;;6188611;23;20031;-78
2021/07/20 07:22:25;;;;;;;31.67;21.00;;;20.00;81.50;;;;;;6215275;23;20021;-78
2021/07/20 07:24:54;;;;;;;26.27;20.08;;;20.00;81.10;;;;;;6215378;23;20023;-76
2021/07/20 07:27:26;;;;;;;37.45;20.58;;;20.10;81.00;;;;;;6214978;23;20104;-77
2021/07/20 07:29:55;;;;;;;23.92;18.60;;;20.20;81.00;;;;;;6188878;23;20487;-76
2021/07/20 07:32:22;;;;;;;30.20;19.15;;;20.30;80.90;;;;;;6215174;23;20355;-77
2021/07/20 07:34:50;;;;;;;29.45;17.50;;;20.30;80.20;;;;;;6214922;23;20052;-76
2021/07/20 07:37:25;;;;;;;27.90;17.88;;;20.40;80.20;;;;;;6214779;23;20025;-77
2021/07/20 07:39:55;;;;;;;24.67;18.50;;;20.40;79.50;;;;;;6214393;23;20472;-75
2021/07/20 07:42:23;;;;;;;22.92;17.55;;;20.50;79.70;;;;;;6214838;23;20020;-76
2021/07/20 07:44:53;;;;;;;21.63;16.00;;;20.50;79.80;;;;;;6215404;23;20345;-77
2021/07/20 07:47:21;;;;;;;20.63;15.15;;;20.60;79.80;;;;;;6214812;23;20020;-77
2021/07/20 07:49:49;;;;;;;22.42;14.75;;;20.70;79.60;;;;;;6215209;23;20027;-77
2021/07/20 07:52:16;;;;;;;18.20;14.57;;;20.70;77.60;;;;;;6214635;23;20020;-75
2021/07/20 07:54:48;;;;;;;21.58;13.40;;;20.80;77.00;;;;;;6214433;23;20031;-77
2021/07/20 07:57:19;;;;;;;18.88;12.48;;;20.90;76.20;;;;;;6215144;23;20016;-76
2021/07/20 07:59:52;;;;;;;18.75;12.18;;;20.90;75.00;;;;;;6215149;23;20020;-75
2021/07/20 08:02:30;;;;;;;22.20;12.77;;;21.10;74.70;;;;;;6214392;23;20032;-78
2021/07/20 08:05:03;;;;;;;18.20;12.40;;;21.10;75.30;;;;;;6215399;23;20096;-77
2021/07/20 08:07:33;;;;;;;22.80;13.68;;;21.20;75.20;;;;;;6215270;23;20020;-78
2021/07/20 08:10:01;;;;;;;24.95;13.10;;;21.30;75.20;;;;;;6214579;23;20020;-77
2021/07/20 08:12:29;;;;;;;20.30;13.45;;;21.30;73.10;;;;;;6215044;23;20027;-76
2021/07/20 08:14:57;;;;;;;17.98;12.85;;;21.40;73.50;;;;;;6214914;23;20017;-76
2021/07/20 08:17:25;;;;;;;18.65;12.30;;;21.40;73.70;;;;;;6187988;23;20027;-79
2021/07/20 08:19:55;;;;;;;16.15;11.43;;;21.50;73.90;;;;;;6214863;23;20029;-76
2021/07/20 08:22:23;;;;;;;17.48;12.23;;;21.50;74.10;;;;;;6188534;23;20496;-77
2021/07/20 08:25:00;;;;;;;17.73;12.00;;;21.60;74.20;;;;;;6214421;23;20021;-75
2021/07/20 08:27:47;;;;;;;17.50;11.90;;;21.80;74.50;;;;;;6188671;23;20091;-77
2021/07/20 08:30:16;;;;;;;17.15;11.68;;;21.90;73.90;;;;;;6214632;23;20016;-76
2021/07/20 08:32:57;;;;;;;16.08;11.45;;;21.90;72.80;;;;;;6188303;23;20020;-78
2021/07/20 08:35:29;;;;;;;16.85;10.55;;;22.00;72.50;;;;;;6214572;23;20017;-77
2021/07/20 08:38:05;;;;;;;19.23;11.82;;;22.10;72.70;;;;;;6213846;23;20047;-77
2021/07/20 08:40:51;;;;;;;16.42;11.18;;;22.20;72.50;;;;;;6186763;23;20036;-77
2021/07/20 08:43:35;;;;;;;14.95;11.20;;;22.30;72.50;;;;;;6214635;23;20031;-78
2021/07/20 08:46:08;;;;;;;15.60;10.63;;;22.40;71.00;;;;;;6188199;23;20024;-77
2021/07/20 08:48:50;;;;;;;14.15;10.10;;;22.40;71.00;;;;;;6214234;23;20075;-76
2021/07/20 08:51:50;;;;;;;17.05;10.35;;;22.40;71.40;;;;;;6214207;23;20021;-77
2021/07/20 08:54:34;;;;;;;16.02;11.02;;;22.50;71.50;;;;;;6163666;23;20016;-77
2021/07/20 08:57:02;;;;;;;;;;;22.60;71.90;;;;;;6215387;23;20338;-76
2021/07/20 08:59:38;;;;;;;14.90;10.82;;;22.70;72.30;;;;;;6214371;23;19922;-77
2021/07/20 09:02:30;;;;;;;13.55;10.38;;;22.70;72.60;;;;;;6214355;23;20020;-76
2021/07/20 09:05:13;;;;;;;14.90;9.73;;;22.80;72.70;;;;;;6214153;23;20559;-78
2021/07/20 09:08:01;;;;;;;18.83;11.30;;;22.80;72.80;;;;;;6188000;23;20027;-77
2021/07/20 09:10:38;;;;;;;14.70;9.85;;;22.80;72.70;;;;;;6213543;23;20024;-78
2021/07/20 09:13:10;;;;;;;18.50;10.95;;;22.90;72.70;;;;;;6214743;23;20017;-77
2021/07/20 09:15:44;;;;;;;18.40;10.90;;;22.90;72.30;;;;;;6214128;23;20361;-77
2021/07/20 09:18:24;;;;;;;20.23;11.25;;;22.90;71.90;;;;;;6187361;23;20096;-76
2021/07/20 09:20:55;;;;;;;20.98;11.00;;;23.00;71.30;;;;;;6214022;23;20035;-76
2021/07/20 09:23:31;;;;;;;15.60;9.93;;;23.00;71.50;;;;;;6214243;23;20049;-76
2021/07/20 09:26:01;;;;;;;16.63;10.80;;;23.00;72.00;;;;;;6187804;23;20024;-76
2021/07/20 09:28:37;;;;;;;13.65;9.00;;;23.00;72.30;;;;;;6187723;23;20472;-75
2021/07/20 09:31:23;;;;;;;14.07;10.05;;;23.00;71.00;;;;;;6187728;23;20025;-77
2021/07/20 09:34:11;;;;;;;16.70;10.82;;;23.00;71.30;;;;;;6213524;23;20487;-77
2021/07/20 09:36:51;;;;;;;19.27;11.27;;;23.10;72.00;;;;;;6213482;23;20532;-78
2021/07/20 09:39:39;;;;;;;17.35;10.15;;;23.20;71.10;;;;;;6187767;23;20016;-76
2021/07/20 09:42:25;;;;;;;14.98;10.10;;;23.30;70.30;;;;;;6187838;23;20476;-77
2021/07/20 09:45:08;;;;;;;16.38;10.10;;;23.40;69.40;;;;;;6187271;23;20021;-76
2021/07/20 09:48:24;;;;;;;16.20;9.30;;;23.50;69.00;;;;;;6213311;23;20062;-79
2021/07/20 09:51:23;;;;;;;15.15;9.65;;;23.60;68.90;;;;;;6121865;23;20029;-77
2021/07/20 09:54:24;;;;;;;13.05;8.70;;;23.70;69.40;;;;;;6097044;23;20025;-78
2021/07/20 09:57:35;;;;;;;16.75;9.32;;;23.80;68.60;;;;;;6121849;23;20028;-77
2021/07/20 10:00:13;;;;;;;13.05;7.50;;;23.90;67.00;;;;;;6092022;23;20023;-77
2021/07/20 10:03:06;;;;;;;19.35;8.15;;;23.90;67.80;;;;;;6068030;23;20022;-78
2021/07/20 10:05:48;;;;;;;15.93;7.85;;;24.10;67.70;;;;;;6092405;23;20370;-79
2021/07/20 10:08:23;;;;;;;12.00;7.35;;;24.10;67.20;;;;;;6068294;23;20026;-78
2021/07/20 10:11:28;;;;;;;13.82;7.72;;;24.30;67.10;;;;;;6069158;23;20101;-79
2021/07/20 10:14:23;;;;;;;19.17;8.43;;;24.30;65.00;;;;;;6092243;23;20336;-79
2021/07/20 10:17:08;;;;;;;;;;;24.40;64.90;;;;;;6068342;23;20384;-78
2021/07/20 10:19:46;;;;;;;12.18;7.78;;;24.50;65.20;;;;;;6068857;23;20035;-78
2021/07/20 10:22:18;;;;;;;15.13;7.78;;;24.60;66.20;;;;;;6115625;23;20018;-78
2021/07/20 10:24:51;;;;;;;18.23;8.20;;;24.70;64.70;;;;;;6121703;23;20018;-77
2021/07/20 10:27:28;;;;;;;13.15;8.23;;;24.80;65.80;;;;;;6121714;23;20505;-80
2021/07/20 10:30:03;;;;;;;14.43;8.52;;;24.80;65.30;;;;;;6101447;23;20018;-78
2021/07/20 10:32:40;;;;;;;13.40;7.90;;;24.90;66.00;;;;;;6126754;23;20029;-77
2021/07/20 10:35:15;;;;;;;20.48;8.20;;;24.90;66.30;;;;;;6151067;23;20018;-77
2021/07/20 10:37:46;;;;;;;14.60;7.97;;;24.90;66.50;;;;;;6183769;23;20027;-76
2021/07/20 10:40:17;;;;;;;16.27;8.20;;;24.80;65.90;;;;;;6213833;23;20136;-77
2021/07/20 10:43:05;;;;;;;19.00;8.60;;;24.80;65.40;;;;;;6213960;23;20021;-78
2021/07/20 10:45:35;;;;;;;13.00;8.35;;;24.70;65.20;;;;;;6186643;23;20039;-78
2021/07/20 10:48:11;;;;;;;17.38;8.38;;;24.80;65.60;;;;;;6213480;23;20487;-78
2021/07/20 10:50:45;;;;;;;13.07;8.32;;;24.80;65.70;;;;;;6213464;23;20020;-79
2021/07/20 10:53:27;;;;;;;13.13;7.82;;;24.90;64.20;;;;;;6214797;23;20017;-78
2021/07/20 10:56:16;;;;;;;13.48;8.48;;;24.90;64.30;;;;;;6214303;23;20021;-79
2021/07/20 10:59:17;;;;;;;13.27;7.13;;;25.00;64.60;;;;;;6188021;23;20021;-79
2021/07/20 11:02:03;;;;;;;14.52;8.30;;;25.10;64.60;;;;;;6214852;23;20026;-76
2021/07/20 11:05:02;;;;;;;12.13;7.63;;;25.30;65.40;;;;;;6214555;23;20055;-77
2021/07/20 11:07:59;;;;;;;14.55;7.75;;;25.30;63.70;;;;;;6214670;23;20017;-80
2021/07/20 11:10:34;;;;;;;11.40;7.03;;;25.30;61.50;;;;;;6214363;23;20465;-78
2021/07/20 11:13:05;;;;;;;11.00;6.70;;;25.30;61.80;;;;;;6188498;23;20075;-78
2021/07/20 11:15:36;;;;;;;15.13;7.65;;;25.30;62.10;;;;;;6188589;23;20048;-77
2021/07/20 11:18:12;;;;;;;14.80;6.75;;;25.20;62.50;;;;;;6216419;23;20369;-77
2021/07/20 11:20:41;;;;;;;12.07;7.20;;;25.30;63.40;;;;;;6216441;23;20020;-77
2021/07/20 11:23:09;;;;;;;12.63;7.32;;;25.30;64.00;;;;;;6190466;23;20024;-75
2021/07/20 11:25:38;;;;;;;15.63;7.65;;;25.30;63.90;;;;;;6216191;23;20031;-77
2021/07/20 11:28:05;;;;;;;13.07;6.93;;;25.40;63.20;;;;;;6189873;23;20025;-77
2021/07/20 11:30:37;;;;;;;16.50;8.13;;;25.40;62.50;;;;;;6216468;23;20020;-78
2021/07/20 11:33:17;;;;;;;17.30;7.78;;;25.40;60.90;;;;;;6216328;23;20071;-77
2021/07/20 11:36:06;;;;;;;14.88;7.15;;;25.50;61.50;;;;;;6215886;23;20024;-77
2021/07/20 11:38:36;;;;;;;12.32;6.47;;;25.60;62.40;;;;;;6216085;23;20476;-78
2021/07/20 11:41:09;;;;;;;13.35;6.00;;;25.60;62.80;;;;;;6190232;23;20020;-77
2021/07/20 11:43:52;;;;;;;11.05;6.57;;;25.70;63.80;;;;;;6216195;23;20032;-78
2021/07/20 11:46:26;;;;;;;16.17;6.35;;;25.90;64.80;;;;;;6215927;23;20030;-76
2021/07/20 11:49:01;;;;;;;9.35;5.53;;;25.90;64.60;;;;;;6215937;23;20031;-77
2021/07/20 11:51:44;;;;;;;11.30;6.30;;;26.10;64.10;;;;;;6189784;23;20020;-77
2021/07/20 11:54:17;;;;;;;11.00;5.78;;;26.20;63.80;;;;;;6190449;23;20428;-77
2021/07/20 11:56:59;;;;;;;12.65;6.07;;;26.20;64.50;;;;;;6215853;23;20016;-77
2021/07/20 11:59:41;;;;;;;11.52;6.32;;;26.40;63.00;;;;;;6215895;23;20017;-78
2021/07/20 12:02:30;;;;;;;13.23;6.30;;;26.40;61.50;;;;;;6189979;23;20052;-78
2021/07/20 12:05:22;;;;;;;11.32;5.82;;;26.40;60.50;;;;;;6189577;23;20035;-78
2021/07/20 12:08:01;;;;;;;10.98;5.25;;;26.40;60.70;;;;;;6215783;23;20357;-79
2021/07/20 12:10:51;;;;;;;10.60;5.60;;;26.40;60.90;;;;;;6189363;23;20027;-79
2021/07/20 12:13:20;;;;;;;13.75;5.88;;;26.50;61.50;;;;;;6215719;23;20017;-76
2021/07/20 12:15:52;;;;;;;12.48;6.10;;;26.60;61.80;;;;;;6216204;23;20048;-78
2021/07/20 12:18:20;;;;;;;9.88;5.90;;;26.50;59.30;;;;;;6216072;23;20017;-78
2021/07/20 12:20:51;;;;;;;14.30;6.05;;;26.60;59.90;;;;;;6216023;23;20043;-77
2021/07/20 12:23:18;;;;;;;13.40;6.28;;;26.60;59.50;;;;;;6215847;23;20020;-78
2021/07/20 12:25:47;;;;;;;17.70;6.25;;;26.60;59.60;;;;;;6215605;23;20020;-77
2021/07/20 12:28:14;;;;;;;16.98;6.50;;;26.70;60.40;;;;;;6215229;23;20027;-78
2021/07/20 12:30:41;;;;;;;12.52;6.35;;;26.60;59.80;;;;;;6189597;23;20021;-77
2021/07/20 12:33:14;;;;;;;13.35;5.80;;;26.70;59.80;;;;;;6189107;23;20023;-78
2021/07/20 12:35:45;;;;;;;7.97;5.80;;;26.80;61.50;;;;;;6215935;23;20023;-76
2021/07/20 12:38:12;;;;;;;11.93;6.45;;;26.80;62.00;;;;;;6189166;23;20024;-77
2021/07/20 12:40:40;;;;;;;10.05;5.97;;;26.90;62.50;;;;;;6215219;23;20519;-78
2021/07/20 12:43:11;;;;;;;16.48;6.57;;;27.00;62.70;;;;;;6215858;23;20023;-76
2021/07/20 12:45:43;;;;;;;16.50;6.80;;;27.10;60.30;;;;;;6189022;23;20016;-78
2021/07/20 12:48:30;;;;;;;12.20;6.82;;;27.20;61.10;;;;;;6215259;23;20404;-79
2021/07/20 12:51:10;;;;;;;13.30;6.97;;;27.20;61.10;;;;;;6188996;23;20477;-76
2021/07/20 12:53:44;;;;;;;12.65;6.65;;;27.30;61.10;;;;;;6215313;23;20495;-79
2021/07/20 12:56:16;;;;;;;14.70;6.65;;;27.40;60.90;;;;;;6215422;23;20028;-75
2021/07/20 12:58:44;;;;;;;12.07;6.97;;;27.40;61.40;;;;;;6189213;23;20016;-78
2021/07/20 13:01:13;;;;;;;12.95;6.78;;;27.50;61.00;;;;;;6215703;23;20021;-77
2021/07/20 13:03:43;;;;;;;11.98;6.40;;;27.50;60.20;;;;;;6215608;23;20031;-77